Darstellungsparameter: Aktuell verwendete Einstellungen:
Skalierung der Graphiken ... ?
xyx+y,   Skalierungsfaktor:      Skalierung: Modus: x, Faktor: 1
Darstellungszeitraum ... ?
Vom - - bis: - -   Zeitraum: 13.05.2019 - 17.05.2019
Min/Max/Avg-Anzeige ... ?
Zeige MMA aktuell
Zeige MMA Monat
Zeige MMA alles
Zeige --A aktuell
Zeige --A Monat
Zeige --A alles
Keine MMA-Anzeige
MMA:
Average (ber die Originaldaten)
MMA-Basis: 17.04.2019 - 19.05.2019
Quicknavigation für Darstellung... ?
Tage:      1T, 2T, 3T, 5T -1T -2T -3T -5T +1T +2T +3T +5T
Wochen: 1W, 2W, 3W -1W -2W -3W +1W +2W +3W
Monate: 1M, 3M, 6M -1M -3M -6M +1M +3M +6M
Jahre:    1J, 3J, 5J, 10J -1J -3J -5J -10J +1J +3J +5J +10J
Nutze für die Darstellung ... ?
Originaldaten oder ...
Mittelwerte Minima Maxima auf...
Stundenbasis Tagesbasis Wochenbasis
Monatsbasis Jahresbasis      Datenbasis: Mittelwerte auf Stundenbasis
Darstellen als:
Statistik (Auto) Statistik J:M      Darstellung:
Zur Graphik,    zurück zur Übersicht aller Sensoren.
 
Tabellarische Datenbersicht: ?
 
Sensor: Nr:Datum:Temp:Abs-Feuchte:Windchill:Wind:
Aussen-T/F 1 13-05-2019 00:00:00 6.45 C 6.14 g/m*3 6.45 C 0 km/h
2 13-05-2019 01:00:00 5.11667 C 6 g/m*3 5.12 C 0 km/h
3 13-05-2019 02:00:00 4.15 C 5.82 g/m*3 4.15 C 0 km/h
4 13-05-2019 03:00:00 3.60833 C 5.71 g/m*3 3.61 C 0 km/h
5 13-05-2019 04:00:00 3.075 C 5.57 g/m*3 3.08 C 0.13333 km/h
6 13-05-2019 05:00:00 2.64167 C 5.46 g/m*3 2.64 C 0.13333 km/h
7 13-05-2019 06:00:00 2.30833 C 5.36 g/m*3 2.31 C 0 km/h
8 13-05-2019 07:00:00 2.63333 C 5.52 g/m*3 2.63 C 0 km/h
9 13-05-2019 08:00:00 4.26667 C 6.21 g/m*3 4.27 C 0 km/h
10 13-05-2019 09:00:00 6.13333 C 6.62 g/m*3 6.13 C 0.53333 km/h
11 13-05-2019 10:00:00 9.69167 C 5.33 g/m*3 9.11 C 6.04167 km/h
12 13-05-2019 11:00:00 11.4 C 5 g/m*3 11.4 C 4.54167 km/h
13 13-05-2019 12:00:00 13.43333 C 3.8 g/m*3 13.43 C 15.7 km/h
14 13-05-2019 13:00:00 14.6 C 3.74 g/m*3 14.6 C 12.36667 km/h
15 13-05-2019 14:00:00 15.575 C 4.12 g/m*3 15.58 C 11.025 km/h
16 13-05-2019 15:00:00 17.19167 C 4.33 g/m*3 17.19 C 11.025 km/h
17 13-05-2019 16:00:00 18.43333 C 4.56 g/m*3 18.43 C 15.56667 km/h
18 13-05-2019 17:00:00 18.6 C 4.52 g/m*3 18.6 C 16.1 km/h
19 13-05-2019 18:00:00 18.08333 C 4.45 g/m*3 18.08 C 16.36667 km/h
20 13-05-2019 19:00:00 16.95833 C 4.74 g/m*3 16.96 C 17.03333 km/h
21 13-05-2019 20:00:00 15.41667 C 4.57 g/m*3 15.42 C 12.76667 km/h
22 13-05-2019 21:00:00 12.25 C 5.46 g/m*3 12.25 C 1.74167 km/h
23 13-05-2019 22:00:00 9.325 C 5.48 g/m*3 9.32 C 0.13333 km/h
24 13-05-2019 23:00:00 7.875 C 5.69 g/m*3 7.88 C 0 km/h
25 14-05-2019 00:00:00 6.7 C 5.69 g/m*3 6.7 C 0 km/h
Sensor: Nr:Datum:Temp:Abs-Feuchte:Windchill:Wind:
Aussen-T/F 26 14-05-2019 01:00:00 5.76667 C 5.54 g/m*3 5.77 C 0 km/h
27 14-05-2019 02:00:00 4.74167 C 5.43 g/m*3 4.74 C 0 km/h
28 14-05-2019 03:00:00 3.83333 C 5.32 g/m*3 3.83 C 0 km/h
29 14-05-2019 04:00:00 3.18333 C 5.24 g/m*3 3.18 C 0 km/h
30 14-05-2019 05:00:00 2.66667 C 5.17 g/m*3 2.67 C 0 km/h
31 14-05-2019 06:00:00 2.41667 C 5.19 g/m*3 2.42 C 0 km/h
32 14-05-2019 07:00:00 2.825 C 5.44 g/m*3 2.83 C 0 km/h
33 14-05-2019 08:00:00 4.2 C 5.97 g/m*3 4.2 C 0 km/h
34 14-05-2019 09:00:00 6.50833 C 6.44 g/m*3 6.51 C 1.46667 km/h
35 14-05-2019 10:00:00 9.575 C 6.34 g/m*3 8.9 C 6.30833 km/h
36 14-05-2019 11:00:00 12.65 C 5.64 g/m*3 12.65 C 15.7 km/h
37 14-05-2019 12:00:00 13.45833 C 5.35 g/m*3 13.46 C 13.83333 km/h
38 14-05-2019 13:00:00 14.21667 C 5.35 g/m*3 14.22 C 15.7 km/h
39 14-05-2019 14:00:00 14.79167 C 5.44 g/m*3 14.79 C 15.83333 km/h
40 14-05-2019 15:00:00 16.00833 C 5.43 g/m*3 16.01 C 13.96667 km/h
41 14-05-2019 16:00:00 16.59167 C 5.24 g/m*3 16.59 C 15.69167 km/h
42 14-05-2019 17:00:00 16.8 C 5.21 g/m*3 16.8 C 14.75833 km/h
43 14-05-2019 18:00:00 16.475 C 5.22 g/m*3 16.48 C 9.53333 km/h
44 14-05-2019 19:00:00 16.075 C 5.22 g/m*3 16.08 C 7.50833 km/h
45 14-05-2019 20:00:00 13.73333 C 5.8 g/m*3 13.73 C 4.15833 km/h
46 14-05-2019 21:00:00 10.35 C 5.82 g/m*3 10.35 C 0.53333 km/h
47 14-05-2019 22:00:00 8.73333 C 5.89 g/m*3 8.73 C 0 km/h
48 14-05-2019 23:00:00 7.69167 C 5.83 g/m*3 7.69 C 0 km/h
49 15-05-2019 00:00:00 6.88333 C 5.65 g/m*3 6.88 C 0 km/h
50 15-05-2019 01:00:00 5.89167 C 5.57 g/m*3 5.89 C 0 km/h
Sensor: Nr:Datum:Temp:Abs-Feuchte:Windchill:Wind:
Aussen-T/F 51 15-05-2019 02:00:00 4.74167 C 5.44 g/m*3 4.74 C 0 km/h
52 15-05-2019 03:00:00 3.98333 C 5.37 g/m*3 3.98 C 0 km/h
53 15-05-2019 04:00:00 3.15 C 5.25 g/m*3 3.15 C 0 km/h
54 15-05-2019 05:00:00 2.60833 C 5.15 g/m*3 2.61 C 0 km/h
55 15-05-2019 06:00:00 2.325 C 5.17 g/m*3 2.33 C 0 km/h
56 15-05-2019 07:00:00 2.75833 C 5.41 g/m*3 2.76 C 0 km/h
57 15-05-2019 08:00:00 3.775 C 5.81 g/m*3 3.78 C 0 km/h
58 15-05-2019 09:00:00 5.99167 C 6.19 g/m*3 5.99 C 2.81667 km/h
59 15-05-2019 10:00:00 10.15833 C 5.19 g/m*3 9.15 C 8.19167 km/h
60 15-05-2019 11:00:00 12.05 C 4.88 g/m*3 12.05 C 10.225 km/h
61 15-05-2019 12:00:00 12.95 C 4.63 g/m*3 12.95 C 8.85833 km/h
62 15-05-2019 13:00:00 14.08333 C 4.35 g/m*3 14.08 C 13.56667 km/h
63 15-05-2019 14:00:00 14.95 C 4.75 g/m*3 14.95 C 15.96667 km/h
64 15-05-2019 15:00:00 15.975 C 4.64 g/m*3 15.98 C 17.83333 km/h
65 15-05-2019 16:00:00 17.19167 C 5.03 g/m*3 17.19 C 12.1 km/h
66 15-05-2019 17:00:00 17.58333 C 4.96 g/m*3 17.58 C 14.1 km/h
67 15-05-2019 18:00:00 17.38333 C 5.02 g/m*3 17.38 C 13.55833 km/h
68 15-05-2019 19:00:00 16.55833 C 4.97 g/m*3 16.56 C 11.55 km/h
69 15-05-2019 20:00:00 15.10833 C 5.45 g/m*3 15.11 C 4.69167 km/h
70 15-05-2019 21:00:00 11.45833 C 5.85 g/m*3 11.46 C 1.74167 km/h
71 15-05-2019 22:00:00 9.525 C 5.5 g/m*3 9.53 C 0.53333 km/h
72 15-05-2019 23:00:00 8.09167 C 5.32 g/m*3 8.09 C 0.93333 km/h
73 16-05-2019 00:00:00 7.39167 C 5.29 g/m*3 7.39 C 1.6 km/h
74 16-05-2019 01:00:00 6.64167 C 5.56 g/m*3 6.64 C 0 km/h
75 16-05-2019 02:00:00 5.725 C 5.61 g/m*3 5.73 C 0 km/h
Sensor: Nr:Datum:Temp:Abs-Feuchte:Windchill:Wind:
Aussen-T/F 76 16-05-2019 03:00:00 5.58333 C 5.8 g/m*3 5.58 C 0 km/h
77 16-05-2019 04:00:00 5.71667 C 5.95 g/m*3 5.72 C 0 km/h
78 16-05-2019 05:00:00 5.83333 C 6.04 g/m*3 5.83 C 0 km/h
79 16-05-2019 06:00:00 5.95 C 6.18 g/m*3 5.95 C 0.13333 km/h
80 16-05-2019 07:00:00 6.64167 C 6.45 g/m*3 6.64 C 0 km/h
81 16-05-2019 08:00:00 7.98333 C 6.84 g/m*3 7.98 C 0.13333 km/h
82 16-05-2019 09:00:00 9.95 C 6.81 g/m*3 9.95 C 4.15 km/h
83 16-05-2019 10:00:00 11.65833 C 6.56 g/m*3 11.66 C 8.45833 km/h
84 16-05-2019 11:00:00 12.20833 C 6.32 g/m*3 12.21 C 8.33333 km/h
85 16-05-2019 12:00:00 13.13333 C 6.73 g/m*3 13.13 C 8.875 km/h
86 16-05-2019 13:00:00 14.68333 C 7.13 g/m*3 14.68 C 10.76667 km/h
87 16-05-2019 14:00:00 15.4 C 7.34 g/m*3 15.4 C 10.48333 km/h
88 16-05-2019 15:00:00 17.38333 C 7.71 g/m*3 17.38 C 10.08333 km/h
89 16-05-2019 16:00:00 18.23333 C 7.73 g/m*3 18.23 C 8.45 km/h
90 16-05-2019 17:00:00 16.90833 C 7.77 g/m*3 16.91 C 9.69167 km/h
91 16-05-2019 18:00:00 15.44167 C 8.11 g/m*3 15.44 C 11.95 km/h
92 16-05-2019 19:00:00 14.075 C 8.25 g/m*3 14.08 C 4.41667 km/h
93 16-05-2019 20:00:00 12.56667 C 8.08 g/m*3 12.57 C 6.70833 km/h
94 16-05-2019 21:00:00 11.175 C 7.69 g/m*3 11.18 C 8.21667 km/h
95 16-05-2019 22:00:00 10.23333 C 7.8 g/m*3 10.23 C 4.29167 km/h
96 16-05-2019 23:00:00 9.60833 C 7.91 g/m*3 9.61 C 0.66667 km/h
97 17-05-2019 00:00:00 9.08333 C 8.06 g/m*3 9.08 C 0 km/h
98 17-05-2019 01:00:00 8.79167 C 8.05 g/m*3 8.79 C 0 km/h
99 17-05-2019 02:00:00 8.7 C 8.1 g/m*3 8.7 C 0 km/h
100 17-05-2019 03:00:00 8.63333 C 8.11 g/m*3 8.63 C 0.53333 km/h
Sensor: Nr:Datum:Temp:Abs-Feuchte:Windchill:Wind:
Aussen-T/F 101 17-05-2019 04:00:00 8.475 C 8.09 g/m*3 8.48 C 0.13333 km/h
102 17-05-2019 05:00:00 8.36667 C 8.04 g/m*3 8.37 C 0 km/h
103 17-05-2019 06:00:00 8.45 C 8.13 g/m*3 8.45 C 0 km/h
104 17-05-2019 07:00:00 8.71667 C 8.31 g/m*3 8.72 C 0.4 km/h
105 17-05-2019 08:00:00 8.96667 C 8.45 g/m*3 8.97 C 1.73333 km/h
106 17-05-2019 09:00:00 9.29167 C 8.62 g/m*3 9.29 C 1.86667 km/h
107 17-05-2019 10:00:00 9.625 C 8.81 g/m*3 9.63 C 4.825 km/h
108 17-05-2019 11:00:00 10.2 C 9.05 g/m*3 10.2 C 3.86667 km/h
109 17-05-2019 12:00:00 11.175 C 9.49 g/m*3 11.18 C 6.425 km/h
110 17-05-2019 13:00:00 12.825 C 10 g/m*3 12.83 C 8.625 km/h
111 17-05-2019 14:00:00 14.44167 C 10.43 g/m*3 14.44 C 6.58333 km/h
112 17-05-2019 15:00:00 15.54167 C 10.58 g/m*3 15.54 C 7.26667 km/h
113 17-05-2019 16:00:00 16.35 C 10.47 g/m*3 16.35 C 7.65833 km/h
114 17-05-2019 17:00:00 17.35 C 10.47 g/m*3 17.35 C 6.70833 km/h
115 17-05-2019 18:00:00 16.8 C 11.2 g/m*3 16.8 C 2 km/h
116 17-05-2019 19:00:00 16.625 C 11.34 g/m*3 16.63 C 0.26667 km/h
117 17-05-2019 20:00:00 13.975 C 10.28 g/m*3 13.98 C 0.26667 km/h
118 17-05-2019 21:00:00 12.00833 C 9.56 g/m*3 12.01 C 0.26667 km/h
119 17-05-2019 22:00:00 11.96667 C 9.78 g/m*3 11.97 C 0 km/h
120 17-05-2019 23:00:00 12.05833 C 9.99 g/m*3 12.06 C 0.4 km/h

Maximal/Minimal-Werte vom 17.04.2019 - 19.05.2019

Sensor Min Max Avg
Temp
(Aussen-T/F)
2.2 °C
13-05-2019  06:50:00
26.6 °C
24-04-2019  17:05:00
11.51 °C

Die Daten stammen von einer Davis Vantage Pro 2 Wetter-Station und werden unter Linux mit der Software wview2wettercgi und aufbereitet. Alle Angaben erfolgen ohne Gewähr für ihre Vollständigkeit oder Richtigkeit.
Kontakt: Rainer Krienke krienke@uni-koblenz.de . Meine Webseiten an der Uni Koblenz oder privat.
Version: $Revision: 0.78 $